sensor_id;sensor_type;location;lat;lon;timestamp;P1;durP1;ratioP1;P2;durP2;ratioP2
4186;SDS011;2107;52.306;10.484;2023-03-14T00:00:03;0.30;;;0.30;;
4186;SDS011;2107;52.306;10.484;2023-03-14T00:02:33;0.30;;;0.30;;
4186;SDS011;2107;52.306;10.484;2023-03-14T00:05:00;0.30;;;0.30;;
4186;SDS011;2107;52.306;10.484;2023-03-14T00:07:27;0.30;;;0.30;;
4186;SDS011;2107;52.306;10.484;2023-03-14T00:09:58;0.30;;;0.30;;
4186;SDS011;2107;52.306;10.484;2023-03-14T00:12:26;0.30;;;0.30;;
4186;SDS011;2107;52.306;10.484;2023-03-14T00:14:53;0.40;;;0.40;;
4186;SDS011;2107;52.306;10.484;2023-03-14T00:17:21;0.30;;;0.30;;
4186;SDS011;2107;52.306;10.484;2023-03-14T00:19:48;0.50;;;0.50;;
4186;SDS011;2107;52.306;10.484;2023-03-14T00:22:18;0.40;;;0.40;;
4186;SDS011;2107;52.306;10.484;2023-03-14T00:24:45;0.40;;;0.40;;
4186;SDS011;2107;52.306;10.484;2023-03-14T00:27:12;0.40;;;0.40;;
4186;SDS011;2107;52.306;10.484;2023-03-14T00:29:39;0.40;;;0.40;;
4186;SDS011;2107;52.306;10.484;2023-03-14T00:32:06;0.40;;;0.40;;
4186;SDS011;2107;52.306;10.484;2023-03-14T00:34:34;0.30;;;0.30;;
4186;SDS011;2107;52.306;10.484;2023-03-14T00:37:01;0.30;;;0.30;;
4186;SDS011;2107;52.306;10.484;2023-03-14T00:39:27;0.20;;;0.20;;
4186;SDS011;2107;52.306;10.484;2023-03-14T00:41:54;0.40;;;0.40;;
4186;SDS011;2107;52.306;10.484;2023-03-14T00:44:21;0.30;;;0.30;;
4186;SDS011;2107;52.306;10.484;2023-03-14T00:46:48;0.30;;;0.30;;
4186;SDS011;2107;52.306;10.484;2023-03-14T00:49:15;0.40;;;0.40;;
4186;SDS011;2107;52.306;10.484;2023-03-14T00:51:46;0.30;;;0.30;;
4186;SDS011;2107;52.306;10.484;2023-03-14T00:54:13;0.50;;;0.50;;
4186;SDS011;2107;52.306;10.484;2023-03-14T00:56:39;0.30;;;0.30;;
4186;SDS011;2107;52.306;10.484;2023-03-14T00:59:06;0.30;;;0.30;;
4186;SDS011;2107;52.306;10.484;2023-03-14T01:01:33;0.30;;;0.30;;
4186;SDS011;2107;52.306;10.484;2023-03-14T01:04:00;0.30;;;0.30;;
4186;SDS011;2107;52.306;10.484;2023-03-14T01:06:27;0.40;;;0.40;;
4186;SDS011;2107;52.306;10.484;2023-03-14T01:08:57;0.60;;;0.60;;
4186;SDS011;2107;52.306;10.484;2023-03-14T01:11:25;0.30;;;0.30;;
4186;SDS011;2107;52.306;10.484;2023-03-14T01:13:53;0.40;;;0.40;;
4186;SDS011;2107;52.306;10.484;2023-03-14T01:16:21;0.40;;;0.40;;
4186;SDS011;2107;52.306;10.484;2023-03-14T01:18:49;0.50;;;0.50;;
4186;SDS011;2107;52.306;10.484;2023-03-14T01:21:17;0.40;;;0.40;;
4186;SDS011;2107;52.306;10.484;2023-03-14T01:23:46;0.50;;;0.50;;
4186;SDS011;2107;52.306;10.484;2023-03-14T01:26:16;0.40;;;0.40;;
4186;SDS011;2107;52.306;10.484;2023-03-14T01:28:44;0.50;;;0.50;;
4186;SDS011;2107;52.306;10.484;2023-03-14T01:31:11;0.40;;;0.40;;
4186;SDS011;2107;52.306;10.484;2023-03-14T01:33:39;0.50;;;0.50;;
4186;SDS011;2107;52.306;10.484;2023-03-14T01:36:06;0.50;;;0.50;;
4186;SDS011;2107;52.306;10.484;2023-03-14T01:38:35;0.40;;;0.40;;
4186;SDS011;2107;52.306;10.484;2023-03-14T01:41:05;0.43;;;0.43;;
4186;SDS011;2107;52.306;10.484;2023-03-14T01:43:33;0.50;;;0.50;;
4186;SDS011;2107;52.306;10.484;2023-03-14T01:46:12;0.40;;;0.40;;
4186;SDS011;2107;52.306;10.484;2023-03-14T01:48:50;0.40;;;0.40;;
4186;SDS011;2107;52.306;10.484;2023-03-14T01:51:23;0.30;;;0.30;;
4186;SDS011;2107;52.306;10.484;2023-03-14T01:53:53;0.40;;;0.40;;
4186;SDS011;2107;52.306;10.484;2023-03-14T01:56:26;0.40;;;0.40;;
4186;SDS011;2107;52.306;10.484;2023-03-14T01:58:54;0.50;;;0.50;;
4186;SDS011;2107;52.306;10.484;2023-03-14T02:01:22;0.40;;;0.40;;
4186;SDS011;2107;52.306;10.484;2023-03-14T02:03:52;0.40;;;0.40;;
4186;SDS011;2107;52.306;10.484;2023-03-14T02:06:21;0.40;;;0.40;;
4186;SDS011;2107;52.306;10.484;2023-03-14T02:08:51;0.50;;;0.50;;
4186;SDS011;2107;52.306;10.484;2023-03-14T02:11:19;0.50;;;0.50;;
4186;SDS011;2107;52.306;10.484;2023-03-14T02:13:46;0.40;;;0.40;;
4186;SDS011;2107;52.306;10.484;2023-03-14T02:16:14;0.50;;;0.50;;
4186;SDS011;2107;52.306;10.484;2023-03-14T02:18:41;0.77;;;0.77;;
4186;SDS011;2107;52.306;10.484;2023-03-14T02:21:10;0.50;;;0.50;;
4186;SDS011;2107;52.306;10.484;2023-03-14T02:23:43;0.70;;;0.70;;
4186;SDS011;2107;52.306;10.484;2023-03-14T02:26:20;0.50;;;0.50;;
4186;SDS011;2107;52.306;10.484;2023-03-14T02:28:50;0.50;;;0.50;;
4186;SDS011;2107;52.306;10.484;2023-03-14T02:31:19;0.77;;;0.77;;
4186;SDS011;2107;52.306;10.484;2023-03-14T02:33:48;0.40;;;0.40;;
4186;SDS011;2107;52.306;10.484;2023-03-14T02:36:15;0.60;;;0.60;;
4186;SDS011;2107;52.306;10.484;2023-03-14T02:38:46;0.40;;;0.40;;
4186;SDS011;2107;52.306;10.484;2023-03-14T02:41:16;0.57;;;0.57;;
4186;SDS011;2107;52.306;10.484;2023-03-14T02:43:44;0.50;;;0.50;;
4186;SDS011;2107;52.306;10.484;2023-03-14T02:46:13;0.57;;;0.57;;
4186;SDS011;2107;52.306;10.484;2023-03-14T02:48:43;0.50;;;0.50;;
4186;SDS011;2107;52.306;10.484;2023-03-14T02:51:13;0.40;;;0.40;;
4186;SDS011;2107;52.306;10.484;2023-03-14T02:53:41;0.50;;;0.50;;
4186;SDS011;2107;52.306;10.484;2023-03-14T02:56:08;0.43;;;0.43;;
4186;SDS011;2107;52.306;10.484;2023-03-14T02:58:35;0.80;;;0.80;;
4186;SDS011;2107;52.306;10.484;2023-03-14T03:01:02;0.50;;;0.50;;
4186;SDS011;2107;52.306;10.484;2023-03-14T03:03:31;0.60;;;0.60;;
4186;SDS011;2107;52.306;10.484;2023-03-14T03:05:58;0.60;;;0.60;;
4186;SDS011;2107;52.306;10.484;2023-03-14T03:08:25;0.60;;;0.60;;
4186;SDS011;2107;52.306;10.484;2023-03-14T03:10:53;0.70;;;0.70;;
4186;SDS011;2107;52.306;10.484;2023-03-14T03:13:19;0.60;;;0.60;;
4186;SDS011;2107;52.306;10.484;2023-03-14T03:15:46;0.50;;;0.50;;
4186;SDS011;2107;52.306;10.484;2023-03-14T03:18:14;0.60;;;0.60;;
4186;SDS011;2107;52.306;10.484;2023-03-14T03:20:43;0.50;;;0.50;;
4186;SDS011;2107;52.306;10.484;2023-03-14T03:23:10;0.70;;;0.70;;
4186;SDS011;2107;52.306;10.484;2023-03-14T03:25:37;0.70;;;0.70;;
4186;SDS011;2107;52.306;10.484;2023-03-14T03:28:04;0.50;;;0.50;;
4186;SDS011;2107;52.306;10.484;2023-03-14T03:30:33;0.70;;;0.70;;
4186;SDS011;2107;52.306;10.484;2023-03-14T03:33:03;0.57;;;0.57;;
4186;SDS011;2107;52.306;10.484;2023-03-14T03:35:30;0.70;;;0.70;;
4186;SDS011;2107;52.306;10.484;2023-03-14T03:37:58;0.43;;;0.43;;
4186;SDS011;2107;52.306;10.484;2023-03-14T03:40:25;0.60;;;0.60;;
4186;SDS011;2107;52.306;10.484;2023-03-14T03:42:52;0.50;;;0.50;;
4186;SDS011;2107;52.306;10.484;2023-03-14T03:45:19;0.60;;;0.60;;
4186;SDS011;2107;52.306;10.484;2023-03-14T03:47:46;0.60;;;0.60;;
4186;SDS011;2107;52.306;10.484;2023-03-14T03:50:13;0.50;;;0.50;;
4186;SDS011;2107;52.306;10.484;2023-03-14T03:52:40;0.53;;;0.53;;
4186;SDS011;2107;52.306;10.484;2023-03-14T03:55:08;0.70;;;0.70;;
4186;SDS011;2107;52.306;10.484;2023-03-14T03:57:35;0.57;;;0.57;;
4186;SDS011;2107;52.306;10.484;2023-03-14T04:00:02;0.70;;;0.70;;
4186;SDS011;2107;52.306;10.484;2023-03-14T04:02:30;0.70;;;0.70;;
4186;SDS011;2107;52.306;10.484;2023-03-14T04:04:57;0.60;;;0.60;;
4186;SDS011;2107;52.306;10.484;2023-03-14T04:07:24;0.80;;;0.80;;
4186;SDS011;2107;52.306;10.484;2023-03-14T04:09:51;0.70;;;0.70;;
4186;SDS011;2107;52.306;10.484;2023-03-14T04:12:19;0.60;;;0.60;;
4186;SDS011;2107;52.306;10.484;2023-03-14T04:14:46;0.50;;;0.50;;
4186;SDS011;2107;52.306;10.484;2023-03-14T04:17:13;0.70;;;0.70;;
4186;SDS011;2107;52.306;10.484;2023-03-14T04:19:40;0.50;;;0.50;;
4186;SDS011;2107;52.306;10.484;2023-03-14T04:22:07;0.50;;;0.50;;
4186;SDS011;2107;52.306;10.484;2023-03-14T04:24:34;0.60;;;0.60;;
4186;SDS011;2107;52.306;10.484;2023-03-14T04:27:01;0.70;;;0.70;;
4186;SDS011;2107;52.306;10.484;2023-03-14T04:29:29;0.60;;;0.60;;
4186;SDS011;2107;52.306;10.484;2023-03-14T04:31:56;0.70;;;0.70;;
4186;SDS011;2107;52.306;10.484;2023-03-14T04:34:23;0.80;;;0.80;;
4186;SDS011;2107;52.306;10.484;2023-03-14T04:36:49;0.50;;;0.50;;
4186;SDS011;2107;52.306;10.484;2023-03-14T04:39:16;0.57;;;0.57;;
4186;SDS011;2107;52.306;10.484;2023-03-14T04:41:43;0.60;;;0.60;;
4186;SDS011;2107;52.306;10.484;2023-03-14T04:44:10;0.60;;;0.60;;
4186;SDS011;2107;52.306;10.484;2023-03-14T04:46:39;0.80;;;0.80;;
4186;SDS011;2107;52.306;10.484;2023-03-14T04:49:05;0.90;;;0.90;;
4186;SDS011;2107;52.306;10.484;2023-03-14T04:51:32;0.80;;;0.80;;
4186;SDS011;2107;52.306;10.484;2023-03-14T04:53:59;0.70;;;0.70;;
4186;SDS011;2107;52.306;10.484;2023-03-14T04:56:26;0.60;;;0.60;;
4186;SDS011;2107;52.306;10.484;2023-03-14T04:58:53;0.80;;;0.80;;
4186;SDS011;2107;52.306;10.484;2023-03-14T05:01:20;0.50;;;0.50;;
4186;SDS011;2107;52.306;10.484;2023-03-14T05:03:48;0.50;;;0.50;;
4186;SDS011;2107;52.306;10.484;2023-03-14T05:06:15;0.60;;;0.60;;
4186;SDS011;2107;52.306;10.484;2023-03-14T05:08:42;0.43;;;0.43;;
4186;SDS011;2107;52.306;10.484;2023-03-14T05:11:10;0.60;;;0.60;;
4186;SDS011;2107;52.306;10.484;2023-03-14T05:13:37;0.67;;;0.67;;
4186;SDS011;2107;52.306;10.484;2023-03-14T05:16:04;0.63;;;0.63;;
4186;SDS011;2107;52.306;10.484;2023-03-14T05:18:33;0.63;;;0.63;;
4186;SDS011;2107;52.306;10.484;2023-03-14T05:21:01;0.70;;;0.70;;
4186;SDS011;2107;52.306;10.484;2023-03-14T05:23:28;0.70;;;0.70;;
4186;SDS011;2107;52.306;10.484;2023-03-14T05:25:55;0.50;;;0.50;;
4186;SDS011;2107;52.306;10.484;2023-03-14T05:28:22;0.70;;;0.70;;
4186;SDS011;2107;52.306;10.484;2023-03-14T05:30:49;0.50;;;0.50;;
4186;SDS011;2107;52.306;10.484;2023-03-14T05:33:16;0.70;;;0.70;;
4186;SDS011;2107;52.306;10.484;2023-03-14T05:35:43;0.50;;;0.50;;
4186;SDS011;2107;52.306;10.484;2023-03-14T05:38:11;0.60;;;0.60;;
4186;SDS011;2107;52.306;10.484;2023-03-14T05:40:38;0.60;;;0.60;;
4186;SDS011;2107;52.306;10.484;2023-03-14T05:43:05;0.80;;;0.80;;
4186;SDS011;2107;52.306;10.484;2023-03-14T05:45:33;0.80;;;0.80;;
4186;SDS011;2107;52.306;10.484;2023-03-14T05:48:00;0.70;;;0.70;;
4186;SDS011;2107;52.306;10.484;2023-03-14T05:50:27;0.60;;;0.60;;
4186;SDS011;2107;52.306;10.484;2023-03-14T05:52:54;0.70;;;0.70;;
4186;SDS011;2107;52.306;10.484;2023-03-14T05:55:22;0.80;;;0.80;;
4186;SDS011;2107;52.306;10.484;2023-03-14T05:57:49;0.60;;;0.60;;
4186;SDS011;2107;52.306;10.484;2023-03-14T06:00:16;0.90;;;0.90;;
4186;SDS011;2107;52.306;10.484;2023-03-14T06:02:43;0.50;;;0.50;;
4186;SDS011;2107;52.306;10.484;2023-03-14T06:05:10;0.40;;;0.40;;
4186;SDS011;2107;52.306;10.484;2023-03-14T06:07:37;0.40;;;0.40;;
4186;SDS011;2107;52.306;10.484;2023-03-14T06:10:05;0.40;;;0.40;;
4186;SDS011;2107;52.306;10.484;2023-03-14T06:12:34;0.40;;;0.40;;
4186;SDS011;2107;52.306;10.484;2023-03-14T06:15:01;0.30;;;0.30;;
4186;SDS011;2107;52.306;10.484;2023-03-14T06:17:28;0.40;;;0.40;;
4186;SDS011;2107;52.306;10.484;2023-03-14T06:19:55;0.30;;;0.30;;
4186;SDS011;2107;52.306;10.484;2023-03-14T06:22:22;0.40;;;0.40;;
4186;SDS011;2107;52.306;10.484;2023-03-14T06:24:49;0.30;;;0.30;;
4186;SDS011;2107;52.306;10.484;2023-03-14T06:27:16;0.30;;;0.30;;
4186;SDS011;2107;52.306;10.484;2023-03-14T06:29:44;0.80;;;0.80;;
4186;SDS011;2107;52.306;10.484;2023-03-14T06:32:11;0.63;;;0.63;;
4186;SDS011;2107;52.306;10.484;2023-03-14T06:34:38;0.63;;;0.63;;
4186;SDS011;2107;52.306;10.484;2023-03-14T06:37:05;0.60;;;0.60;;
4186;SDS011;2107;52.306;10.484;2023-03-14T06:39:32;0.50;;;0.50;;
4186;SDS011;2107;52.306;10.484;2023-03-14T06:41:59;0.50;;;0.50;;
4186;SDS011;2107;52.306;10.484;2023-03-14T06:44:26;0.50;;;0.50;;
4186;SDS011;2107;52.306;10.484;2023-03-14T06:46:54;0.50;;;0.50;;
4186;SDS011;2107;52.306;10.484;2023-03-14T06:49:21;0.50;;;0.50;;
4186;SDS011;2107;52.306;10.484;2023-03-14T06:51:48;0.60;;;0.60;;
4186;SDS011;2107;52.306;10.484;2023-03-14T06:54:15;0.30;;;0.30;;
4186;SDS011;2107;52.306;10.484;2023-03-14T06:56:42;0.50;;;0.50;;
4186;SDS011;2107;52.306;10.484;2023-03-14T06:59:09;0.70;;;0.70;;
4186;SDS011;2107;52.306;10.484;2023-03-14T07:01:36;0.60;;;0.60;;
4186;SDS011;2107;52.306;10.484;2023-03-14T07:04:04;0.67;;;0.67;;
4186;SDS011;2107;52.306;10.484;2023-03-14T07:06:31;0.70;;;0.70;;
4186;SDS011;2107;52.306;10.484;2023-03-14T07:08:59;0.80;;;0.80;;
4186;SDS011;2107;52.306;10.484;2023-03-14T07:11:26;0.67;;;0.67;;
4186;SDS011;2107;52.306;10.484;2023-03-14T07:13:52;0.80;;;0.80;;
4186;SDS011;2107;52.306;10.484;2023-03-14T07:16:19;0.50;;;0.50;;
4186;SDS011;2107;52.306;10.484;2023-03-14T07:18:46;0.70;;;0.70;;
4186;SDS011;2107;52.306;10.484;2023-03-14T07:21:15;0.70;;;0.70;;
4186;SDS011;2107;52.306;10.484;2023-03-14T07:23:42;0.50;;;0.50;;
4186;SDS011;2107;52.306;10.484;2023-03-14T07:26:09;0.70;;;0.70;;
4186;SDS011;2107;52.306;10.484;2023-03-14T07:28:36;0.60;;;0.60;;
4186;SDS011;2107;52.306;10.484;2023-03-14T07:31:02;0.70;;;0.70;;
4186;SDS011;2107;52.306;10.484;2023-03-14T07:33:30;0.90;;;0.90;;
4186;SDS011;2107;52.306;10.484;2023-03-14T07:35:57;0.93;;;0.93;;
4186;SDS011;2107;52.306;10.484;2023-03-14T07:38:25;0.60;;;0.60;;
4186;SDS011;2107;52.306;10.484;2023-03-14T07:40:57;0.80;;;0.80;;
4186;SDS011;2107;52.306;10.484;2023-03-14T07:43:25;0.50;;;0.50;;
4186;SDS011;2107;52.306;10.484;2023-03-14T07:45:52;0.60;;;0.60;;
4186;SDS011;2107;52.306;10.484;2023-03-14T07:48:18;0.50;;;0.50;;
4186;SDS011;2107;52.306;10.484;2023-03-14T07:50:48;0.80;;;0.80;;
4186;SDS011;2107;52.306;10.484;2023-03-14T07:53:15;0.70;;;0.70;;
4186;SDS011;2107;52.306;10.484;2023-03-14T07:55:43;0.70;;;0.70;;
4186;SDS011;2107;52.306;10.484;2023-03-14T07:58:10;0.70;;;0.70;;
4186;SDS011;2107;52.306;10.484;2023-03-14T08:00:37;0.50;;;0.50;;
4186;SDS011;2107;52.306;10.484;2023-03-14T08:03:04;0.80;;;0.80;;
4186;SDS011;2107;52.306;10.484;2023-03-14T08:05:33;0.70;;;0.70;;
4186;SDS011;2107;52.306;10.484;2023-03-14T08:08:00;0.73;;;0.73;;
4186;SDS011;2107;52.306;10.484;2023-03-14T08:10:27;0.80;;;0.80;;
4186;SDS011;2107;52.306;10.484;2023-03-14T08:12:56;0.60;;;0.60;;
4186;SDS011;2107;52.306;10.484;2023-03-14T08:15:24;0.70;;;0.70;;
4186;SDS011;2107;52.306;10.484;2023-03-14T08:17:52;0.90;;;0.90;;
4186;SDS011;2107;52.306;10.484;2023-03-14T08:20:19;0.80;;;0.80;;
4186;SDS011;2107;52.306;10.484;2023-03-14T08:22:47;0.87;;;0.87;;
4186;SDS011;2107;52.306;10.484;2023-03-14T08:25:14;0.80;;;0.80;;
4186;SDS011;2107;52.306;10.484;2023-03-14T08:27:41;0.67;;;0.67;;
4186;SDS011;2107;52.306;10.484;2023-03-14T08:30:11;0.50;;;0.50;;
4186;SDS011;2107;52.306;10.484;2023-03-14T08:32:39;0.70;;;0.70;;
4186;SDS011;2107;52.306;10.484;2023-03-14T08:35:06;0.40;;;0.40;;
4186;SDS011;2107;52.306;10.484;2023-03-14T08:37:34;0.50;;;0.50;;
4186;SDS011;2107;52.306;10.484;2023-03-14T08:40:02;0.50;;;0.50;;
4186;SDS011;2107;52.306;10.484;2023-03-14T08:42:31;0.50;;;0.50;;
4186;SDS011;2107;52.306;10.484;2023-03-14T08:44:59;0.50;;;0.50;;
4186;SDS011;2107;52.306;10.484;2023-03-14T08:47:27;0.60;;;0.60;;
4186;SDS011;2107;52.306;10.484;2023-03-14T08:49:54;0.50;;;0.50;;
4186;SDS011;2107;52.306;10.484;2023-03-14T08:52:21;0.57;;;0.57;;
4186;SDS011;2107;52.306;10.484;2023-03-14T08:54:48;0.70;;;0.70;;
4186;SDS011;2107;52.306;10.484;2023-03-14T08:57:15;0.70;;;0.70;;
4186;SDS011;2107;52.306;10.484;2023-03-14T08:59:42;0.70;;;0.70;;
4186;SDS011;2107;52.306;10.484;2023-03-14T09:02:09;0.70;;;0.70;;
4186;SDS011;2107;52.306;10.484;2023-03-14T09:04:38;0.70;;;0.70;;
4186;SDS011;2107;52.306;10.484;2023-03-14T09:07:05;0.60;;;0.60;;
4186;SDS011;2107;52.306;10.484;2023-03-14T09:09:32;0.70;;;0.70;;
4186;SDS011;2107;52.306;10.484;2023-03-14T09:11:59;0.70;;;0.70;;
4186;SDS011;2107;52.306;10.484;2023-03-14T09:14:26;0.90;;;0.90;;
4186;SDS011;2107;52.306;10.484;2023-03-14T09:16:52;0.73;;;0.73;;
4186;SDS011;2107;52.306;10.484;2023-03-14T09:19:19;0.73;;;0.73;;
4186;SDS011;2107;52.306;10.484;2023-03-14T09:21:48;0.70;;;0.70;;
4186;SDS011;2107;52.306;10.484;2023-03-14T09:24:15;0.83;;;0.83;;
4186;SDS011;2107;52.306;10.484;2023-03-14T09:26:42;1.17;;;1.17;;
4186;SDS011;2107;52.306;10.484;2023-03-14T09:29:09;0.70;;;0.70;;
4186;SDS011;2107;52.306;10.484;2023-03-14T09:31:36;1.10;;;1.10;;
4186;SDS011;2107;52.306;10.484;2023-03-14T09:34:03;1.00;;;1.00;;
4186;SDS011;2107;52.306;10.484;2023-03-14T09:36:30;0.80;;;0.80;;
4186;SDS011;2107;52.306;10.484;2023-03-14T09:38:58;0.80;;;0.80;;
4186;SDS011;2107;52.306;10.484;2023-03-14T09:41:26;0.70;;;0.70;;
4186;SDS011;2107;52.306;10.484;2023-03-14T09:43:58;0.90;;;0.90;;
4186;SDS011;2107;52.306;10.484;2023-03-14T09:46:30;0.60;;;0.60;;
4186;SDS011;2107;52.306;10.484;2023-03-14T09:48:59;0.50;;;0.50;;
4186;SDS011;2107;52.306;10.484;2023-03-14T09:51:26;0.70;;;0.70;;
4186;SDS011;2107;52.306;10.484;2023-03-14T09:53:53;0.70;;;0.70;;
4186;SDS011;2107;52.306;10.484;2023-03-14T09:56:22;0.43;;;0.43;;
4186;SDS011;2107;52.306;10.484;2023-03-14T09:58:51;0.30;;;0.30;;
4186;SDS011;2107;52.306;10.484;2023-03-14T10:01:22;0.40;;;0.40;;
4186;SDS011;2107;52.306;10.484;2023-03-14T10:03:52;0.40;;;0.40;;
4186;SDS011;2107;52.306;10.484;2023-03-14T10:06:21;0.60;;;0.60;;
4186;SDS011;2107;52.306;10.484;2023-03-14T10:08:51;0.60;;;0.60;;
4186;SDS011;2107;52.306;10.484;2023-03-14T10:11:19;0.37;;;0.37;;
4186;SDS011;2107;52.306;10.484;2023-03-14T10:13:49;0.40;;;0.40;;
4186;SDS011;2107;52.306;10.484;2023-03-14T10:16:28;0.53;;;0.53;;
4186;SDS011;2107;52.306;10.484;2023-03-14T10:19:01;0.50;;;0.50;;
4186;SDS011;2107;52.306;10.484;2023-03-14T10:21:29;1.00;;;1.00;;
4186;SDS011;2107;52.306;10.484;2023-03-14T10:24:07;0.70;;;0.70;;
4186;SDS011;2107;52.306;10.484;2023-03-14T10:26:35;1.03;;;1.03;;
4186;SDS011;2107;52.306;10.484;2023-03-14T10:29:08;1.00;;;1.00;;
4186;SDS011;2107;52.306;10.484;2023-03-14T10:31:47;0.77;;;0.77;;
4186;SDS011;2107;52.306;10.484;2023-03-14T10:34:21;1.00;;;1.00;;
4186;SDS011;2107;52.306;10.484;2023-03-14T10:36:52;1.00;;;1.00;;
4186;SDS011;2107;52.306;10.484;2023-03-14T10:39:27;1.40;;;1.40;;
4186;SDS011;2107;52.306;10.484;2023-03-14T10:42:02;1.30;;;1.30;;
4186;SDS011;2107;52.306;10.484;2023-03-14T10:44:33;1.40;;;1.40;;
4186;SDS011;2107;52.306;10.484;2023-03-14T10:47:01;1.00;;;1.00;;
4186;SDS011;2107;52.306;10.484;2023-03-14T10:49:30;1.60;;;1.60;;
4186;SDS011;2107;52.306;10.484;2023-03-14T10:52:00;1.60;;;1.60;;
4186;SDS011;2107;52.306;10.484;2023-03-14T10:54:29;1.50;;;1.50;;
4186;SDS011;2107;52.306;10.484;2023-03-14T10:56:57;1.40;;;1.40;;
4186;SDS011;2107;52.306;10.484;2023-03-14T10:59:25;1.10;;;1.10;;
4186;SDS011;2107;52.306;10.484;2023-03-14T11:01:58;0.90;;;0.90;;
4186;SDS011;2107;52.306;10.484;2023-03-14T11:04:39;0.80;;;0.80;;
4186;SDS011;2107;52.306;10.484;2023-03-14T11:07:20;0.90;;;0.90;;
4186;SDS011;2107;52.306;10.484;2023-03-14T11:09:54;0.80;;;0.80;;
4186;SDS011;2107;52.306;10.484;2023-03-14T11:12:31;0.80;;;0.80;;
4186;SDS011;2107;52.306;10.484;2023-03-14T11:15:09;0.80;;;0.80;;
4186;SDS011;2107;52.306;10.484;2023-03-14T11:17:46;0.80;;;0.80;;
4186;SDS011;2107;52.306;10.484;2023-03-14T11:20:26;0.90;;;0.90;;
4186;SDS011;2107;52.306;10.484;2023-03-14T11:22:59;0.90;;;0.90;;
4186;SDS011;2107;52.306;10.484;2023-03-14T11:25:35;0.90;;;0.90;;
4186;SDS011;2107;52.306;10.484;2023-03-14T11:28:14;0.70;;;0.70;;
4186;SDS011;2107;52.306;10.484;2023-03-14T11:30:46;0.83;;;0.83;;
4186;SDS011;2107;52.306;10.484;2023-03-14T11:33:20;0.70;;;0.70;;
4186;SDS011;2107;52.306;10.484;2023-03-14T11:35:55;0.80;;;0.80;;
4186;SDS011;2107;52.306;10.484;2023-03-14T11:38:29;0.60;;;0.60;;
4186;SDS011;2107;52.306;10.484;2023-03-14T11:41:00;0.50;;;0.50;;
4186;SDS011;2107;52.306;10.484;2023-03-14T11:43:28;0.67;;;0.67;;
4186;SDS011;2107;52.306;10.484;2023-03-14T11:46:02;0.90;;;0.90;;
4186;SDS011;2107;52.306;10.484;2023-03-14T11:48:36;0.60;;;0.60;;
4186;SDS011;2107;52.306;10.484;2023-03-14T11:51:07;0.70;;;0.70;;
4186;SDS011;2107;52.306;10.484;2023-03-14T11:53:47;0.80;;;0.80;;
4186;SDS011;2107;52.306;10.484;2023-03-14T11:56:22;0.70;;;0.70;;
4186;SDS011;2107;52.306;10.484;2023-03-14T11:58:55;0.70;;;0.70;;
4186;SDS011;2107;52.306;10.484;2023-03-14T12:01:27;0.70;;;0.70;;
4186;SDS011;2107;52.306;10.484;2023-03-14T12:04:04;0.60;;;0.60;;
4186;SDS011;2107;52.306;10.484;2023-03-14T12:06:40;0.60;;;0.60;;
4186;SDS011;2107;52.306;10.484;2023-03-14T12:09:13;0.60;;;0.60;;
4186;SDS011;2107;52.306;10.484;2023-03-14T12:11:43;0.70;;;0.70;;
4186;SDS011;2107;52.306;10.484;2023-03-14T12:14:17;0.70;;;0.70;;
4186;SDS011;2107;52.306;10.484;2023-03-14T12:16:46;2.10;;;2.10;;
4186;SDS011;2107;52.306;10.484;2023-03-14T12:19:24;3.07;;;3.07;;
4186;SDS011;2107;52.306;10.484;2023-03-14T12:21:54;4.10;;;4.10;;
4186;SDS011;2107;52.306;10.484;2023-03-14T12:24:25;3.30;;;3.30;;
4186;SDS011;2107;52.306;10.484;2023-03-14T12:26:55;2.20;;;2.20;;
4186;SDS011;2107;52.306;10.484;2023-03-14T12:29:24;1.30;;;1.30;;
4186;SDS011;2107;52.306;10.484;2023-03-14T12:32:07;1.20;;;1.20;;
4186;SDS011;2107;52.306;10.484;2023-03-14T12:34:40;1.00;;;1.00;;
4186;SDS011;2107;52.306;10.484;2023-03-14T12:37:14;0.70;;;0.70;;
4186;SDS011;2107;52.306;10.484;2023-03-14T12:39:57;0.90;;;0.90;;
4186;SDS011;2107;52.306;10.484;2023-03-14T12:42:38;1.03;;;1.03;;
4186;SDS011;2107;52.306;10.484;2023-03-14T12:45:14;0.70;;;0.70;;
4186;SDS011;2107;52.306;10.484;2023-03-14T12:50:42;0.60;;;0.60;;
4186;SDS011;2107;52.306;10.484;2023-03-14T12:53:19;0.60;;;0.60;;
4186;SDS011;2107;52.306;10.484;2023-03-14T12:56:22;0.40;;;0.40;;
4186;SDS011;2107;52.306;10.484;2023-03-14T12:58:59;0.50;;;0.50;;
4186;SDS011;2107;52.306;10.484;2023-03-14T13:01:35;0.67;;;0.67;;
4186;SDS011;2107;52.306;10.484;2023-03-14T13:04:02;0.40;;;0.40;;
4186;SDS011;2107;52.306;10.484;2023-03-14T13:06:50;0.30;;;0.30;;
4186;SDS011;2107;52.306;10.484;2023-03-14T13:12:17;0.30;;;0.30;;
4186;SDS011;2107;52.306;10.484;2023-03-14T13:14:45;0.40;;;0.40;;
4186;SDS011;2107;52.306;10.484;2023-03-14T13:17:14;0.30;;;0.30;;
4186;SDS011;2107;52.306;10.484;2023-03-14T13:19:48;0.50;;;0.50;;
4186;SDS011;2107;52.306;10.484;2023-03-14T13:22:21;0.50;;;0.50;;
4186;SDS011;2107;52.306;10.484;2023-03-14T13:24:57;0.50;;;0.50;;
4186;SDS011;2107;52.306;10.484;2023-03-14T13:27:26;0.57;;;0.57;;
4186;SDS011;2107;52.306;10.484;2023-03-14T13:29:53;0.50;;;0.50;;
4186;SDS011;2107;52.306;10.484;2023-03-14T13:32:21;0.30;;;0.30;;
4186;SDS011;2107;52.306;10.484;2023-03-14T13:34:52;0.20;;;0.20;;
4186;SDS011;2107;52.306;10.484;2023-03-14T13:37:24;0.30;;;0.30;;
4186;SDS011;2107;52.306;10.484;2023-03-14T13:39:54;0.40;;;0.40;;
4186;SDS011;2107;52.306;10.484;2023-03-14T13:42:24;0.33;;;0.33;;
4186;SDS011;2107;52.306;10.484;2023-03-14T13:44:53;0.40;;;0.40;;
4186;SDS011;2107;52.306;10.484;2023-03-14T13:47:23;0.40;;;0.40;;
4186;SDS011;2107;52.306;10.484;2023-03-14T13:49:51;0.50;;;0.50;;
4186;SDS011;2107;52.306;10.484;2023-03-14T13:52:24;0.50;;;0.50;;
4186;SDS011;2107;52.306;10.484;2023-03-14T13:54:55;0.37;;;0.37;;
4186;SDS011;2107;52.306;10.484;2023-03-14T13:57:23;0.40;;;0.40;;
4186;SDS011;2107;52.306;10.484;2023-03-14T13:59:59;0.40;;;0.40;;
4186;SDS011;2107;52.306;10.484;2023-03-14T14:02:31;0.70;;;0.70;;
4186;SDS011;2107;52.306;10.484;2023-03-14T14:04:59;0.80;;;0.80;;
4186;SDS011;2107;52.306;10.484;2023-03-14T14:07:28;0.90;;;0.90;;
4186;SDS011;2107;52.306;10.484;2023-03-14T14:09:55;1.13;;;1.13;;
4186;SDS011;2107;52.306;10.484;2023-03-14T14:12:25;1.20;;;1.20;;
4186;SDS011;2107;52.306;10.484;2023-03-14T14:14:56;1.40;;;1.40;;
4186;SDS011;2107;52.306;10.484;2023-03-14T14:17:27;1.20;;;1.20;;
4186;SDS011;2107;52.306;10.484;2023-03-14T14:20:00;1.60;;;1.60;;
4186;SDS011;2107;52.306;10.484;2023-03-14T14:22:31;1.80;;;1.80;;
4186;SDS011;2107;52.306;10.484;2023-03-14T14:24:59;1.70;;;1.70;;
4186;SDS011;2107;52.306;10.484;2023-03-14T14:27:29;1.50;;;1.50;;
4186;SDS011;2107;52.306;10.484;2023-03-14T14:30:00;1.70;;;1.70;;
4186;SDS011;2107;52.306;10.484;2023-03-14T14:32:34;1.60;;;1.60;;
4186;SDS011;2107;52.306;10.484;2023-03-14T14:35:02;1.60;;;1.60;;
4186;SDS011;2107;52.306;10.484;2023-03-14T14:37:32;1.67;;;1.67;;
4186;SDS011;2107;52.306;10.484;2023-03-14T14:40:05;1.80;;;1.80;;
4186;SDS011;2107;52.306;10.484;2023-03-14T14:42:35;1.60;;;1.60;;
4186;SDS011;2107;52.306;10.484;2023-03-14T14:45:09;1.80;;;1.80;;
4186;SDS011;2107;52.306;10.484;2023-03-14T14:47:47;1.63;;;1.63;;
4186;SDS011;2107;52.306;10.484;2023-03-14T14:50:19;1.60;;;1.60;;
4186;SDS011;2107;52.306;10.484;2023-03-14T14:52:55;1.70;;;1.70;;
4186;SDS011;2107;52.306;10.484;2023-03-14T14:55:28;1.73;;;1.73;;
4186;SDS011;2107;52.306;10.484;2023-03-14T14:57:57;1.70;;;1.70;;
4186;SDS011;2107;52.306;10.484;2023-03-14T15:00:25;1.40;;;1.40;;
4186;SDS011;2107;52.306;10.484;2023-03-14T15:02:54;1.40;;;1.40;;
4186;SDS011;2107;52.306;10.484;2023-03-14T15:05:26;1.20;;;1.20;;
4186;SDS011;2107;52.306;10.484;2023-03-14T15:07:56;1.57;;;1.57;;
4186;SDS011;2107;52.306;10.484;2023-03-14T15:10:24;1.70;;;1.70;;
4186;SDS011;2107;52.306;10.484;2023-03-14T15:12:51;1.50;;;1.50;;
4186;SDS011;2107;52.306;10.484;2023-03-14T15:15:18;1.60;;;1.60;;
4186;SDS011;2107;52.306;10.484;2023-03-14T15:17:46;2.23;;;2.23;;